createdAt,value
2023-03-22T00:00:46.653Z,12.80
2023-03-22T00:02:51.416Z,12.81
2023-03-22T00:04:56.451Z,12.80
2023-03-22T00:07:01.479Z,12.78
2023-03-22T00:09:06.879Z,12.78
2023-03-22T00:11:15.115Z,12.75
2023-03-22T00:13:19.871Z,12.75
2023-03-22T00:15:24.961Z,12.75
2023-03-22T00:17:30.642Z,12.76
2023-03-22T00:19:37.180Z,12.77
2023-03-22T00:21:41.864Z,12.77
2023-03-22T00:23:47.318Z,12.79
2023-03-22T00:25:52.448Z,12.81
2023-03-22T00:27:59.864Z,12.81
2023-03-22T00:30:04.841Z,12.84
2023-03-22T00:32:09.631Z,12.85
2023-03-22T00:34:14.354Z,12.86
2023-03-22T00:36:19.102Z,12.90
2023-03-22T00:38:39.530Z,12.93
2023-03-22T00:40:46.662Z,12.95
2023-03-22T00:42:51.723Z,13.00
2023-03-22T00:44:59.374Z,13.01
2023-03-22T00:47:04.058Z,13.05
2023-03-22T00:49:08.796Z,13.08
2023-03-22T00:51:15.918Z,13.12
2023-03-22T00:53:21.067Z,13.14
2023-03-22T00:55:25.929Z,13.15
2023-03-22T00:57:30.619Z,13.19
2023-03-22T00:59:38.730Z,13.19
2023-03-22T01:01:46.518Z,13.19
2023-03-22T01:03:52.666Z,13.22
2023-03-22T01:05:58.471Z,13.23
2023-03-22T01:08:08.679Z,13.24
2023-03-22T01:10:15.205Z,13.23
2023-03-22T01:12:21.520Z,13.25
2023-03-22T01:14:26.419Z,13.26
2023-03-22T01:16:31.265Z,13.28
2023-03-22T01:18:38.889Z,13.28
2023-03-22T01:20:44.311Z,13.26
2023-03-22T01:22:49.100Z,13.27
2023-03-22T01:24:54.068Z,13.28
2023-03-22T01:26:59.002Z,13.31
2023-03-22T01:29:03.673Z,13.31
2023-03-22T01:31:09.018Z,13.31
2023-03-22T01:33:13.956Z,13.32
2023-03-22T01:35:21.847Z,13.33
2023-03-22T01:37:27.809Z,13.37
2023-03-22T01:39:32.633Z,13.39
2023-03-22T01:41:41.133Z,13.41
2023-03-22T01:44:23.946Z,13.40
2023-03-22T01:46:33.150Z,13.40
2023-03-22T01:48:42.166Z,13.38
2023-03-22T01:50:58.533Z,13.36
2023-03-22T01:53:06.774Z,13.38
2023-03-22T01:55:18.313Z,13.38
2023-03-22T01:57:26.232Z,13.37
2023-03-22T01:59:33.330Z,13.34
2023-03-22T02:02:02.880Z,13.29
2023-03-22T02:04:12.397Z,13.26
2023-03-22T02:06:21.180Z,13.21
2023-03-22T02:08:33.382Z,13.20
2023-03-22T02:10:43.404Z,13.21
2023-03-22T02:13:02.126Z,13.21
2023-03-22T02:15:26.632Z,13.19
2023-03-22T02:18:23.000Z,13.16
2023-03-22T02:21:02.481Z,13.15
2023-03-22T02:23:34.017Z,13.15
2023-03-22T02:26:17.160Z,13.16
2023-03-22T02:28:34.156Z,13.17
2023-03-22T02:31:05.073Z,13.16
2023-03-22T02:33:34.220Z,13.16
2023-03-22T02:35:53.616Z,13.16
2023-03-22T02:38:42.559Z,13.19
2023-03-22T02:40:54.323Z,13.19
2023-03-22T02:43:05.731Z,13.22
2023-03-22T02:45:16.915Z,13.22
2023-03-22T02:47:27.231Z,13.23
2023-03-22T02:49:40.426Z,13.23
2023-03-22T02:51:48.718Z,13.23
2023-03-22T02:53:59.144Z,13.22
2023-03-22T02:56:13.603Z,13.21
2023-03-22T02:58:22.358Z,13.22
2023-03-22T03:00:29.624Z,13.23
2023-03-22T03:02:36.500Z,13.21
2023-03-22T03:04:47.358Z,13.19
2023-03-22T03:06:55.884Z,13.20
2023-03-22T03:09:05.169Z,13.21
2023-03-22T03:11:13.053Z,13.20
2023-03-22T03:13:20.217Z,13.20
2023-03-22T03:15:26.751Z,13.20
2023-03-22T03:17:50.623Z,13.16
2023-03-22T03:20:08.031Z,13.14
2023-03-22T03:22:35.388Z,13.14
2023-03-22T03:24:47.957Z,13.14
2023-03-22T03:27:03.833Z,13.14
2023-03-22T03:29:16.353Z,13.13
2023-03-22T03:31:34.634Z,13.13
2023-03-22T03:33:43.608Z,13.15
2023-03-22T03:35:53.458Z,13.19
2023-03-22T03:38:01.821Z,13.20
2023-03-22T03:40:12.910Z,13.20
2023-03-22T03:42:21.965Z,13.19
2023-03-22T03:44:27.576Z,13.20
2023-03-22T03:46:32.715Z,13.21
2023-03-22T03:48:40.326Z,13.19
2023-03-22T03:50:45.327Z,13.18
2023-03-22T03:52:50.414Z,13.16
2023-03-22T03:54:55.533Z,13.14
2023-03-22T03:57:09.821Z,13.13
2023-03-22T03:59:18.701Z,13.11
2023-03-22T04:01:26.461Z,13.11
2023-03-22T04:03:46.672Z,13.10
2023-03-22T04:06:08.962Z,13.09
2023-03-22T04:08:16.467Z,13.09
2023-03-22T04:10:21.496Z,13.10
2023-03-22T04:12:26.287Z,13.11
2023-03-22T04:14:56.022Z,13.09
2023-03-22T04:17:04.328Z,13.01
2023-03-22T04:19:09.042Z,13.04
2023-03-22T04:21:16.617Z,13.07
2023-03-22T04:23:27.930Z,13.05
2023-03-22T04:25:33.983Z,13.03
2023-03-22T04:27:51.215Z,12.97
2023-03-22T04:30:01.138Z,12.92
2023-03-22T04:32:34.855Z,12.89
2023-03-22T04:34:40.043Z,12.87
2023-03-22T04:36:49.905Z,12.86
2023-03-22T04:39:11.755Z,12.85
2023-03-22T04:41:21.633Z,12.85
2023-03-22T04:43:29.517Z,12.85
2023-03-22T04:45:42.208Z,12.82
2023-03-22T04:47:48.200Z,12.83
2023-03-22T04:49:53.723Z,12.79
2023-03-22T04:51:59.912Z,12.78
2023-03-22T04:54:13.070Z,12.74
2023-03-22T04:56:19.875Z,12.70
2023-03-22T04:58:30.492Z,12.68
2023-03-22T05:00:37.767Z,12.64
2023-03-22T05:02:46.251Z,12.63
2023-03-22T05:05:01.331Z,12.63
2023-03-22T05:07:11.764Z,12.63
2023-03-22T05:09:24.633Z,12.59
2023-03-22T05:11:31.799Z,12.59
2023-03-22T05:13:54.939Z,12.47
2023-03-22T05:16:00.352Z,12.49
2023-03-22T05:18:20.559Z,12.47
2023-03-22T05:20:25.401Z,12.44
2023-03-22T05:22:45.979Z,12.41
2023-03-22T05:24:52.007Z,12.39
2023-03-22T05:27:03.996Z,12.36
2023-03-22T05:29:09.735Z,12.36
2023-03-22T05:31:34.687Z,12.33
2023-03-22T05:33:44.257Z,12.33
2023-03-22T05:35:52.035Z,12.34
2023-03-22T05:37:57.330Z,12.33
2023-03-22T05:40:05.388Z,12.33
2023-03-22T05:42:14.907Z,12.30
2023-03-22T05:44:20.025Z,12.31
2023-03-22T05:46:37.358Z,12.33
2023-03-22T05:49:03.803Z,12.31
2023-03-22T05:51:10.092Z,12.33
2023-03-22T05:53:15.080Z,12.31
2023-03-22T05:55:26.356Z,12.32
2023-03-22T05:57:34.932Z,12.31
2023-03-22T05:59:42.118Z,12.33
2023-03-22T06:01:52.595Z,12.35
2023-03-22T06:04:03.610Z,12.33
2023-03-22T06:06:44.335Z,12.35
2023-03-22T06:09:15.954Z,12.36
2023-03-22T06:11:22.743Z,12.38
2023-03-22T06:13:27.831Z,12.40
2023-03-22T06:15:32.844Z,12.42
2023-03-22T06:17:45.952Z,12.42
2023-03-22T06:19:57.170Z,12.43
2023-03-22T06:22:02.615Z,12.48
2023-03-22T06:24:08.304Z,12.52
2023-03-22T06:26:13.633Z,12.56
2023-03-22T06:28:22.662Z,12.61
2023-03-22T06:30:30.035Z,12.64
2023-03-22T06:33:00.672Z,12.69
2023-03-22T06:35:09.071Z,12.74
2023-03-22T06:37:13.830Z,12.78
2023-03-22T06:39:20.480Z,12.83
2023-03-22T06:41:26.717Z,12.87
2023-03-22T06:43:31.688Z,12.91
2023-03-22T06:45:50.348Z,12.95
2023-03-22T06:48:01.311Z,12.99
2023-03-22T06:50:39.951Z,13.01
2023-03-22T06:52:55.948Z,13.07
2023-03-22T06:55:01.043Z,13.14
2023-03-22T06:57:06.320Z,13.18
2023-03-22T06:59:11.260Z,13.22
2023-03-22T07:01:16.240Z,13.28
2023-03-22T07:03:21.231Z,13.35
2023-03-22T07:05:38.440Z,13.40
2023-03-22T07:07:43.361Z,13.48
2023-03-22T07:09:48.350Z,13.54
2023-03-22T07:11:53.886Z,13.59
2023-03-22T07:13:59.081Z,13.63
2023-03-22T07:16:10.890Z,13.69
2023-03-22T07:18:36.795Z,13.75
2023-03-22T07:20:44.514Z,13.86
2023-03-22T07:22:49.425Z,13.96
2023-03-22T07:24:57.814Z,14.03
2023-03-22T07:27:06.013Z,14.08
2023-03-22T07:29:11.389Z,14.11
2023-03-22T07:31:16.974Z,14.12
2023-03-22T07:33:31.020Z,14.14
2023-03-22T07:35:37.014Z,14.19
2023-03-22T07:37:45.593Z,14.24
2023-03-22T07:39:59.468Z,14.30
2023-03-22T07:42:09.750Z,14.38
2023-03-22T07:44:20.996Z,14.45
2023-03-22T07:46:39.317Z,14.54
2023-03-22T07:48:55.252Z,14.64
2023-03-22T07:51:19.313Z,14.70
2023-03-22T07:53:29.213Z,14.77
2023-03-22T07:55:35.825Z,14.91
2023-03-22T07:57:41.187Z,15.04
2023-03-22T07:59:46.309Z,15.17
2023-03-22T08:01:51.984Z,15.31
2023-03-22T08:04:04.551Z,15.47
2023-03-22T08:06:23.669Z,15.65
2023-03-22T08:08:31.488Z,15.81
2023-03-22T08:10:37.080Z,15.95
2023-03-22T08:12:42.425Z,16.09
2023-03-22T08:15:05.250Z,16.20
2023-03-22T08:17:11.678Z,16.36
2023-03-22T08:19:16.654Z,16.50
2023-03-22T08:21:21.743Z,16.64
2023-03-22T08:23:41.531Z,16.75
2023-03-22T08:26:02.334Z,16.98
2023-03-22T08:28:07.367Z,17.17
2023-03-22T08:30:13.665Z,17.42
2023-03-22T08:32:19.956Z,17.61
2023-03-22T08:34:28.590Z,17.77
2023-03-22T08:36:35.123Z,17.93
2023-03-22T08:38:46.138Z,18.05
2023-03-22T08:40:53.596Z,18.18
2023-03-22T08:43:02.129Z,18.35
2023-03-22T08:45:10.452Z,18.53
2023-03-22T08:47:21.682Z,18.71
2023-03-22T08:49:31.586Z,18.84
2023-03-22T08:51:44.380Z,19.02
2023-03-22T08:53:58.974Z,19.25
2023-03-22T08:56:22.828Z,19.52
2023-03-22T08:58:40.783Z,19.77
2023-03-22T09:01:16.987Z,19.86
2023-03-22T09:03:28.341Z,20.04
2023-03-22T09:05:33.061Z,20.23
2023-03-22T09:07:37.872Z,20.40
2023-03-22T09:09:51.462Z,20.54
2023-03-22T09:11:56.376Z,20.69
2023-03-22T09:14:01.895Z,20.86
2023-03-22T09:16:09.031Z,21.05
2023-03-22T09:18:14.291Z,21.26
2023-03-22T09:20:19.158Z,21.45
2023-03-22T09:22:25.291Z,21.64
2023-03-22T09:24:30.140Z,21.79
2023-03-22T09:26:41.713Z,21.94
2023-03-22T09:28:46.961Z,22.16
2023-03-22T09:30:53.690Z,22.31
2023-03-22T09:32:59.262Z,22.48
2023-03-22T09:35:04.025Z,22.60
2023-03-22T09:37:19.254Z,22.72
2023-03-22T09:39:30.130Z,22.80
2023-03-22T09:41:43.900Z,22.89
2023-03-22T09:43:54.198Z,23.04
2023-03-22T09:45:59.156Z,23.21
2023-03-22T09:48:07.164Z,23.34
2023-03-22T09:50:16.632Z,23.48
2023-03-22T09:52:21.840Z,23.58
2023-03-22T09:54:35.045Z,23.57
2023-03-22T09:56:43.490Z,23.62
2023-03-22T09:58:53.966Z,23.78
2023-03-22T10:01:02.228Z,23.98
2023-03-22T10:03:17.518Z,24.10
2023-03-22T10:05:30.073Z,24.17
2023-03-22T10:07:45.757Z,24.27
2023-03-22T10:10:02.464Z,24.45
2023-03-22T10:12:18.611Z,24.41
2023-03-22T10:14:33.697Z,24.31
2023-03-22T10:16:38.771Z,24.20
2023-03-22T10:18:47.292Z,24.06
2023-03-22T10:20:59.785Z,23.90
2023-03-22T10:23:07.409Z,23.73
2023-03-22T10:25:17.942Z,23.55
2023-03-22T10:27:30.064Z,23.33
2023-03-22T10:29:41.416Z,23.16
2023-03-22T10:31:48.102Z,22.98
2023-03-22T10:33:58.650Z,22.79
2023-03-22T10:36:05.579Z,22.66
2023-03-22T10:38:18.189Z,22.55
2023-03-22T10:40:27.491Z,22.45
2023-03-22T10:42:37.860Z,22.34
2023-03-22T10:44:50.747Z,22.24
2023-03-22T10:46:57.119Z,22.01
2023-03-22T10:49:03.869Z,21.99
2023-03-22T10:51:10.040Z,21.91
2023-03-22T10:53:23.994Z,21.79
2023-03-22T10:55:29.202Z,21.71
2023-03-22T10:57:36.605Z,21.62
2023-03-22T10:59:51.151Z,21.57
2023-03-22T11:01:56.526Z,21.57
2023-03-22T11:04:03.188Z,21.57
2023-03-22T11:06:11.307Z,21.58
2023-03-22T11:08:17.844Z,21.55
2023-03-22T11:10:27.579Z,21.53
2023-03-22T11:12:32.678Z,21.55
2023-03-22T11:14:45.009Z,21.56
2023-03-22T11:16:56.024Z,21.54
2023-03-22T11:19:03.921Z,21.56
2023-03-22T11:21:12.628Z,21.56
2023-03-22T11:23:18.672Z,21.57
2023-03-22T11:25:28.741Z,21.53
2023-03-22T11:27:36.560Z,21.49
2023-03-22T11:29:49.684Z,21.46
2023-03-22T11:31:56.342Z,21.35
2023-03-22T11:34:02.563Z,21.41
2023-03-22T11:36:18.708Z,21.47
2023-03-22T11:38:29.588Z,21.49
2023-03-22T11:40:36.764Z,21.53
2023-03-22T11:42:41.814Z,21.55
2023-03-22T11:44:49.620Z,21.56
2023-03-22T11:47:00.727Z,21.58
2023-03-22T11:49:10.197Z,21.60
2023-03-22T11:51:20.538Z,21.68
2023-03-22T11:53:28.742Z,21.69
2023-03-22T11:55:34.716Z,21.71
2023-03-22T11:57:40.105Z,21.75
2023-03-22T11:59:59.629Z,21.73
2023-03-22T12:02:16.122Z,21.73
2023-03-22T12:04:27.140Z,21.75
2023-03-22T12:06:36.481Z,21.77
2023-03-22T12:08:45.597Z,21.82
2023-03-22T12:10:55.366Z,21.89
2023-03-22T12:13:03.614Z,21.92
2023-03-22T12:15:18.538Z,21.97
2023-03-22T12:17:32.060Z,22.06
2023-03-22T12:19:49.816Z,22.12
2023-03-22T12:21:55.514Z,22.17
2023-03-22T12:24:04.110Z,22.21
2023-03-22T12:26:15.808Z,22.26
2023-03-22T12:28:25.126Z,22.31
2023-03-22T12:30:36.673Z,22.36
2023-03-22T12:32:46.369Z,22.39
2023-03-22T12:35:01.376Z,22.39
2023-03-22T12:37:17.810Z,22.29
2023-03-22T12:39:28.768Z,22.39
2023-03-22T12:41:38.505Z,22.46
2023-03-22T12:43:51.336Z,22.53
2023-03-22T12:46:04.060Z,22.49
2023-03-22T12:48:13.637Z,22.49
2023-03-22T12:50:21.989Z,22.52
2023-03-22T12:52:44.526Z,22.53
2023-03-22T12:54:54.263Z,22.52
2023-03-22T12:57:00.183Z,22.52
2023-03-22T12:59:08.685Z,22.53
2023-03-22T13:01:25.423Z,22.48
2023-03-22T13:03:32.953Z,22.53
2023-03-22T13:05:40.075Z,22.58
2023-03-22T13:07:55.934Z,22.60
2023-03-22T13:10:02.640Z,22.64
2023-03-22T13:12:30.780Z,22.62
2023-03-22T13:14:58.990Z,22.67
2023-03-22T13:17:09.830Z,22.72
2023-03-22T13:19:37.191Z,22.76
2023-03-22T13:21:43.613Z,22.77
2023-03-22T13:24:05.194Z,22.78
2023-03-22T13:26:18.337Z,22.82
2023-03-22T13:28:29.633Z,22.84
2023-03-22T13:30:38.616Z,22.87
2023-03-22T13:32:55.979Z,22.83
2023-03-22T13:35:01.683Z,22.79
2023-03-22T13:37:12.341Z,22.76
2023-03-22T13:39:19.451Z,22.77
2023-03-22T13:41:29.264Z,22.76
2023-03-22T13:43:45.940Z,22.74
2023-03-22T13:46:05.744Z,22.73
2023-03-22T13:48:33.669Z,22.71
2023-03-22T13:50:42.213Z,22.65
2023-03-22T13:52:55.535Z,22.61
2023-03-22T13:55:01.157Z,22.63
2023-03-22T13:57:06.224Z,22.64
2023-03-22T13:59:14.169Z,22.65
2023-03-22T14:01:26.816Z,22.63
2023-03-22T14:03:39.115Z,22.61
2023-03-22T14:05:47.411Z,22.59
2023-03-22T14:07:56.311Z,22.58
2023-03-22T14:10:05.580Z,22.58
2023-03-22T14:12:20.778Z,22.56
2023-03-22T14:14:30.083Z,22.55
2023-03-22T14:16:42.913Z,22.52
2023-03-22T14:18:52.274Z,22.52
2023-03-22T14:21:00.991Z,22.49
2023-03-22T14:52:40.695Z,22.18
2023-03-22T14:54:47.078Z,22.16
2023-03-22T14:56:53.093Z,22.12
2023-03-22T14:59:00.878Z,22.11
2023-03-22T15:01:08.335Z,22.06
2023-03-22T15:03:20.313Z,22.03
2023-03-22T15:05:27.936Z,22.01
2023-03-22T15:07:33.226Z,22.00
2023-03-22T15:09:40.840Z,21.97
2023-03-22T15:11:46.548Z,21.96
2023-03-22T15:13:53.187Z,21.95
2023-03-22T15:15:59.309Z,21.93
2023-03-22T15:18:05.272Z,21.93
2023-03-22T15:20:11.217Z,21.91
2023-03-22T15:22:18.015Z,21.87
2023-03-22T15:24:30.718Z,21.81
2023-03-22T15:26:40.279Z,21.77
2023-03-22T15:28:50.330Z,21.78
2023-03-22T15:31:01.846Z,21.74
2023-03-22T15:33:09.621Z,21.72
2023-03-22T15:35:17.447Z,21.71
2023-03-22T15:37:28.866Z,21.69
2023-03-22T15:39:39.555Z,21.68
2023-03-22T15:41:55.826Z,21.67
2023-03-22T15:44:08.248Z,21.64
2023-03-22T15:46:21.274Z,21.62
2023-03-22T15:48:30.128Z,21.58
2023-03-22T15:50:41.517Z,21.58
2023-03-22T15:52:52.236Z,21.54
2023-03-22T15:55:01.619Z,21.53
2023-03-22T15:57:22.598Z,21.52
2023-03-22T15:59:29.687Z,21.52
2023-03-22T16:01:44.954Z,21.50
2023-03-22T16:03:57.108Z,21.49
2023-03-22T16:06:02.205Z,21.46
2023-03-22T16:08:07.444Z,21.46
2023-03-22T16:10:18.324Z,21.44
2023-03-22T16:12:27.355Z,21.43
2023-03-22T16:14:32.267Z,21.42
2023-03-22T16:16:37.462Z,21.40
2023-03-22T16:18:42.316Z,21.40
2023-03-22T16:20:48.414Z,21.40
2023-03-22T16:22:54.172Z,21.40
2023-03-22T16:25:00.404Z,21.38
2023-03-22T16:27:05.387Z,21.37
2023-03-22T16:29:12.826Z,21.33
2023-03-22T16:31:19.806Z,21.31
2023-03-22T16:33:24.824Z,21.27
2023-03-22T16:35:30.090Z,21.25
2023-03-22T16:37:37.761Z,21.23
2023-03-22T16:39:42.759Z,21.21
2023-03-22T16:41:47.649Z,21.19
2023-03-22T16:43:53.304Z,21.17
2023-03-22T16:46:20.372Z,21.13
2023-03-22T16:48:27.092Z,21.10
2023-03-22T16:50:55.113Z,21.07
2023-03-22T16:53:00.473Z,21.04
2023-03-22T16:55:05.960Z,21.01
2023-03-22T16:57:19.490Z,20.97
2023-03-22T16:59:27.931Z,20.93
2023-03-22T17:01:36.159Z,20.90
2023-03-22T17:03:41.428Z,20.88
2023-03-22T17:05:47.308Z,20.83
2023-03-22T17:07:53.324Z,20.81
2023-03-22T17:09:58.482Z,20.76
2023-03-22T17:12:03.842Z,20.74
2023-03-22T17:14:08.936Z,20.73
2023-03-22T17:16:15.225Z,20.71
2023-03-22T17:18:23.053Z,20.66
2023-03-22T17:20:29.472Z,20.66
2023-03-22T17:22:34.572Z,20.62
2023-03-22T17:24:40.735Z,20.56
2023-03-22T17:26:45.824Z,20.50
2023-03-22T17:28:50.756Z,20.44
2023-03-22T17:30:55.667Z,20.38
2023-03-22T17:33:01.910Z,20.33
2023-03-22T17:35:10.331Z,20.25
2023-03-22T17:37:15.491Z,20.19
2023-03-22T17:39:36.157Z,20.13
2023-03-22T17:41:45.700Z,20.03
2023-03-22T17:43:50.706Z,19.96
2023-03-22T17:46:38.295Z,19.90
2023-03-22T17:48:20.459Z,19.83
2023-03-22T17:50:31.076Z,19.79
2023-03-22T17:52:36.132Z,19.75
2023-03-22T17:55:08.060Z,19.71
2023-03-22T17:57:40.347Z,19.66
2023-03-22T17:59:31.657Z,19.60
2023-03-22T18:01:36.530Z,19.56
2023-03-22T18:03:41.537Z,19.51
2023-03-22T18:05:49.191Z,19.45
2023-03-22T18:08:10.377Z,19.40
2023-03-22T18:10:19.674Z,19.32
2023-03-22T18:12:24.701Z,19.25
2023-03-22T18:14:35.845Z,19.21
2023-03-22T18:16:53.297Z,19.14
2023-03-22T18:19:03.450Z,19.04
2023-03-22T18:21:15.584Z,18.98
2023-03-22T18:23:20.588Z,18.93
2023-03-22T18:25:29.383Z,18.87
2023-03-22T18:27:47.541Z,18.82
2023-03-22T18:29:52.876Z,18.76
2023-03-22T18:32:08.874Z,18.69
2023-03-22T18:34:22.241Z,18.61
2023-03-22T18:36:29.867Z,18.56
2023-03-22T18:39:09.721Z,18.53
2023-03-22T18:41:31.498Z,18.47
2023-03-22T18:43:25.910Z,18.41
2023-03-22T18:45:42.448Z,18.36
2023-03-22T18:47:56.335Z,18.30
2023-03-22T18:50:01.490Z,18.28
2023-03-22T18:54:17.371Z,18.22
2023-03-22T18:56:22.407Z,18.19
2023-03-22T18:58:27.552Z,18.17
2023-03-22T19:00:32.533Z,18.16
2023-03-22T19:02:40.179Z,18.12
2023-03-22T19:04:45.528Z,18.08
2023-03-22T19:06:51.527Z,18.06
2023-03-22T19:09:02.295Z,18.01
2023-03-22T19:11:07.762Z,17.99
2023-03-22T19:13:14.015Z,17.97
2023-03-22T19:15:44.047Z,17.94
2023-03-22T19:17:45.164Z,17.90
2023-03-22T19:19:57.536Z,17.85
2023-03-22T19:22:08.073Z,17.79
2023-03-22T19:24:18.356Z,17.75
2023-03-22T19:26:28.100Z,17.75
2023-03-22T19:28:36.079Z,17.73
2023-03-22T19:30:49.919Z,17.72
2023-03-22T19:33:20.201Z,17.71
2023-03-22T19:35:21.094Z,17.67
2023-03-22T19:37:26.043Z,17.66
2023-03-22T19:39:34.003Z,17.61
2023-03-22T19:43:46.693Z,17.55
2023-03-22T19:45:51.609Z,17.52
2023-03-22T19:48:04.027Z,17.48
2023-03-22T19:50:11.417Z,17.44
2023-03-22T19:52:16.774Z,17.43
2023-03-22T19:54:36.044Z,17.41
2023-03-22T19:56:54.478Z,17.34
2023-03-22T19:59:00.015Z,17.34
2023-03-22T20:01:12.221Z,17.32
2023-03-22T20:03:18.117Z,17.31
2023-03-22T20:05:25.532Z,17.30
2023-03-22T20:07:30.569Z,17.28
2023-03-22T20:09:35.948Z,17.24
2023-03-22T20:11:43.668Z,17.22
2023-03-22T20:13:57.044Z,17.19
2023-03-22T20:16:09.233Z,17.17
2023-03-22T20:18:19.468Z,17.13
2023-03-22T20:20:33.387Z,17.07
2023-03-22T20:22:40.018Z,17.06
2023-03-22T20:24:51.411Z,16.99
2023-03-22T20:27:28.825Z,16.94
2023-03-22T20:30:10.987Z,16.88
2023-03-22T20:32:27.812Z,16.83
2023-03-22T20:34:33.423Z,16.75
2023-03-22T20:36:39.035Z,16.72
2023-03-22T20:39:09.480Z,16.63
2023-03-22T20:44:11.296Z,16.50
2023-03-22T20:46:19.584Z,16.49
2023-03-22T20:48:24.784Z,16.47
2023-03-22T20:50:30.954Z,16.44
2023-03-22T20:52:35.968Z,16.40
2023-03-22T20:54:40.885Z,16.36
2023-03-22T20:56:46.135Z,16.34
2023-03-22T20:58:53.178Z,16.27
2023-03-22T21:01:00.242Z,16.24
2023-03-22T21:03:08.213Z,16.22
2023-03-22T21:05:14.919Z,16.21
2023-03-22T21:07:20.409Z,16.16
2023-03-22T21:09:25.782Z,16.17
2023-03-22T21:11:31.340Z,16.16
2023-03-22T21:13:40.830Z,16.15
2023-03-22T21:15:46.002Z,16.09
2023-03-22T21:17:51.214Z,16.06
2023-03-22T21:19:58.802Z,16.02
2023-03-22T21:22:05.345Z,16.00
2023-03-22T21:24:11.076Z,15.98
2023-03-22T21:26:16.513Z,15.96
2023-03-22T21:28:26.158Z,15.95
2023-03-22T21:30:31.527Z,15.93
2023-03-22T21:32:37.194Z,15.92
2023-03-22T21:34:42.244Z,15.92
2023-03-22T21:36:51.262Z,15.89
2023-03-22T21:38:57.138Z,15.86
2023-03-22T21:41:03.315Z,15.86
2023-03-22T21:43:09.133Z,15.83
2023-03-22T21:45:15.201Z,15.83
2023-03-22T21:47:24.017Z,15.83
2023-03-22T21:49:30.261Z,15.79
2023-03-22T21:51:35.558Z,15.76
2023-03-22T21:53:44.171Z,15.70
2023-03-22T21:55:50.059Z,15.67
2023-03-22T21:57:55.527Z,15.64
2023-03-22T22:00:00.449Z,15.61
2023-03-22T22:02:05.999Z,15.58
2023-03-22T22:04:11.251Z,15.57
2023-03-22T22:06:16.200Z,15.56
2023-03-22T22:08:22.043Z,15.53
2023-03-22T22:10:31.227Z,15.53
2023-03-22T22:12:36.846Z,15.53
2023-03-22T22:14:41.935Z,15.54
2023-03-22T22:16:47.806Z,15.53
2023-03-22T22:18:52.756Z,15.54
2023-03-22T22:21:01.091Z,15.55
2023-03-22T22:23:06.220Z,15.53
2023-03-22T22:25:13.952Z,15.53
2023-03-22T22:27:22.202Z,15.52
2023-03-22T22:29:27.625Z,15.53
2023-03-22T22:31:34.184Z,15.53
2023-03-22T22:33:40.085Z,15.54
2023-03-22T22:35:45.627Z,15.52
2023-03-22T22:37:51.391Z,15.51
2023-03-22T22:39:56.635Z,15.51
2023-03-22T22:42:01.726Z,15.51
2023-03-22T22:44:10.301Z,15.49
2023-03-22T22:46:16.334Z,15.49
2023-03-22T22:48:21.730Z,15.48
2023-03-22T22:50:26.673Z,15.47
2023-03-22T22:52:37.768Z,15.44
2023-03-22T22:54:42.749Z,15.43
2023-03-22T22:56:47.602Z,15.43
2023-03-22T22:58:54.425Z,15.43
2023-03-22T23:01:01.821Z,15.41
2023-03-22T23:03:06.804Z,15.42
2023-03-22T23:05:14.408Z,15.39
2023-03-22T23:07:19.503Z,15.38
2023-03-22T23:09:27.657Z,15.36
2023-03-22T23:11:33.962Z,15.35
2023-03-22T23:13:46.787Z,15.36
2023-03-22T23:15:52.964Z,15.36
2023-03-22T23:18:09.984Z,15.34
2023-03-22T23:20:16.075Z,15.33
2023-03-22T23:22:23.304Z,15.33
2023-03-22T23:24:29.332Z,15.30
2023-03-22T23:26:34.292Z,15.28
2023-03-22T23:28:39.786Z,15.27
2023-03-22T23:30:44.722Z,15.27
2023-03-22T23:32:51.700Z,15.27
2023-03-22T23:35:03.628Z,15.27
2023-03-22T23:37:10.987Z,15.28
2023-03-22T23:39:15.984Z,15.27
2023-03-22T23:41:22.335Z,15.25
2023-03-22T23:43:27.300Z,15.23
2023-03-22T23:45:32.262Z,15.22
2023-03-22T23:47:37.972Z,15.18
2023-03-22T23:49:42.944Z,15.16
2023-03-22T23:51:50.690Z,15.14
2023-03-22T23:53:56.823Z,15.13
2023-03-22T23:56:01.792Z,15.12
2023-03-22T23:58:07.586Z,15.09
